Aérodrome :
LOGIN :

S'inscrire | Disclaimer

   EN    FR    IT 

 










Légende :    VFR   VFR Marginal   IFR   IFR Intensif   IFR Très Intensif
Visi : 
Plafond : 
>= 8 km
>= 3000ft
5 à 8 km
1000 à 3000 ft
1500m à 5 km
500 à 1000 ft
800 à 1500m
200 à 500 ft
< 800m
< 200 ft
Symboles :   Orages  Brouillard  Fortes neiges  Fortes précipitations  Vent > 20 kt
SIGMETs :   Divers  Orages  Givrage  Turbulence  Onde Orograph.  Cendres Volcan.






- Altitude de l'aérodrome : 170 ft
- Code IATA : KRP


EKKA - Karup

DERNIER METAR :
  • 140620Z AUTO 28015KT 9999 BKN017/// 10/08 Q1008 NOSIG

METARs EXPIRÉS :
  • 140550Z AUTO 28015KT 9999 BKN019/// 10/07 Q1007 BECMG 29015KT
  • 140520Z AUTO 28019KT 9999 BKN019/// 11/07 Q1006 BECMG 29015KT
  • 140452Z AUTO 27023G34KT 9999 BKN020/// 11/08 Q1004
  • 140426Z AUTO 26023G34KT 9999 OVC017/// 11/08 Q1003
  • 140350Z AUTO 26028G40KT 9999 OVC016/// 11/08 Q1002
  • 140339Z AUTO 25029G41KT 9999 OVC017/// 12/08 Q1001

TAF TAF EKKA
Valide du 14 à 06h jusqu'au 15 à 06h UTC


140504Z 1406/1506 27022G35KT 9999 BKN020
BECMG 1406/1408 28012KT
BECMG 1411/1414 VRB05KT
BECMG 1415/1418 12012KT
TEMPO 1420/1502 6000 RA BKN012
TEMPO 1502/1506 4000 RADZ BKN008



MET'MAP, la Météo Aéronautique d'un coup d'oeil ! - Copyright ORBIFLY Décembre 2007 - Disclaimer

ORBIFLY MET'MAP TEAM :

Programmation & Développement : Alexandra Zaïnal
Conception & Développement : Baudouin d'Aumeries
Co-Programmation & Développement : Marc-Olivier Méhu
Soutien technique & logistique : Manuel Goepfert

Contact : metmap@orbifly.com




SOURCES & CREDITS :

   NOAA